Time;durP1;ratioP1;P1;durP2;ratioP2;P2;SDS_P1;SDS_P2;PMS_P1;PMS_P2;Temp;Humidity;BMP_temperature;BMP_pressure;BME280_temperature;BME280_humidity;BME280_pressure;Samples;Min_cycle;Max_cycle;Signal;HPM_P1;HPM_P2
2023/04/06 00:02:02;;;;;;;;;;;;;;;11.83;53.39;98421.25;4955024;28;19925;-81
2023/04/06 00:04:28;;;;;;;;;;;;;;;11.76;53.36;98423.59;4953336;29;20017;-81
2023/04/06 00:06:53;;;;;;;;;;;;;;;11.72;53.34;98414.34;4970233;28;19965;-81
2023/04/06 00:09:18;;;;;;;;;;;;;;;11.70;53.39;98423.25;4969927;28;19977;-81
2023/04/06 00:11:43;;;;;;;;;;;;;;;11.63;53.67;98417.75;4953709;29;19969;-81
2023/04/06 00:14:09;;;;;;;;;;;;;;;11.60;53.37;98420.63;4970403;28;20386;-81
2023/04/06 00:16:34;;;;;;;;;;;;;;;11.52;53.85;98410.81;4957619;29;20404;-82
2023/04/06 00:19:00;;;;;;;;;;;;;;;11.49;53.81;98411.06;4957989;29;20385;-82
2023/04/06 00:21:25;;;;;;;;;;;;;;;11.45;53.85;98406.22;4955150;29;19925;-81
2023/04/06 00:23:51;;;;;;;;;;;;;;;11.42;53.94;98402.13;4971117;28;19929;-81
2023/04/06 00:26:16;;;;;;;;;;;;;;;11.37;53.85;98399.06;4956641;28;20001;-82
2023/04/06 00:28:41;;;;;;;;;;;;;;;11.35;53.85;98407.03;4973896;28;19957;-81
2023/04/06 00:31:07;;;;;;;;;;;;;;;11.32;53.74;98396.00;4973818;28;19925;-81
2023/04/06 00:33:32;;;;;;;;;;;;;;;11.28;53.80;98398.06;4956654;28;19918;-81
2023/04/06 00:35:57;;;;;;;;;;;;;;;11.25;53.97;98390.47;4956599;28;19929;-81
2023/04/06 00:38:23;;;;;;;;;;;;;;;11.21;54.04;98389.06;4956713;28;19929;-81
2023/04/06 00:40:48;;;;;;;;;;;;;;;11.19;53.80;98386.56;4972580;28;19926;-81
2023/04/06 00:43:14;;;;;;;;;;;;;;;11.16;53.67;98386.00;4956786;28;20397;-81
2023/04/06 00:45:39;;;;;;;;;;;;;;;11.13;54.03;98383.66;4956552;28;20321;-81
2023/04/06 00:48:05;;;;;;;;;;;;;;;11.12;53.64;98382.84;4956286;28;19922;-81
2023/04/06 00:50:30;;;;;;;;;;;;;;;11.12;54.03;98384.63;4955581;28;20296;-81
2023/04/06 00:52:55;;;;;;;;;;;;;;;11.09;53.92;98372.66;4956860;28;19940;-81
2023/04/06 00:55:21;;;;;;;;;;;;;;;11.10;53.96;98379.53;4956812;28;20338;-81
2023/04/06 00:57:47;;;;;;;;;;;;;;;11.09;53.85;98371.84;4973952;28;19918;-81
2023/04/06 01:00:12;;;;;;;;;;;;;;;11.09;53.79;98372.66;4956483;28;19969;-80
2023/04/06 01:02:38;;;;;;;;;;;;;;;11.07;53.76;98368.50;4956037;28;19922;-80
2023/04/06 01:05:03;;;;;;;;;;;;;;;11.07;53.72;98368.50;4956299;28;19918;-80
2023/04/06 01:07:29;;;;;;;;;;;;;;;11.05;53.69;98371.25;4973357;28;20492;-80
2023/04/06 01:10:07;;;;;;;;;;;;;;;11.04;53.58;98364.38;4956107;28;19965;-80
2023/04/06 01:12:32;;;;;;;;;;;;;;;11.03;53.56;98366.16;4973866;28;19926;-80
2023/04/06 01:14:57;;;;;;;;;;;;;;;11.02;53.45;98361.06;4965003;28;20309;-81
2023/04/06 01:17:23;;;;;;;;;;;;;;;11.00;53.38;98366.41;4975655;28;20389;-80
2023/04/06 01:19:53;;;;;;;;;;;;;;;10.97;53.34;98358.81;4991965;28;20313;-81
2023/04/06 01:22:19;;;;;;;;;;;;;;;10.95;53.25;98350.28;4976246;28;20021;-81
2023/04/06 01:24:44;;;;;;;;;;;;;;;10.94;53.30;98353.03;4975450;28;20436;-81
2023/04/06 01:27:10;;;;;;;;;;;;;;;10.90;53.43;98347.25;4975701;28;19929;-80
2023/04/06 01:29:35;;;;;;;;;;;;;;;10.87;53.51;98347.50;4975480;28;19918;-80
2023/04/06 01:32:00;;;;;;;;;;;;;;;10.83;53.51;98341.72;4974752;28;19917;-80
2023/04/06 01:34:26;;;;;;;;;;;;;;;10.81;53.45;98343.63;4975693;28;20377;-80
2023/04/06 01:36:53;;;;;;;;;;;;;;;10.77;53.52;98341.38;4974814;28;20302;-80
2023/04/06 01:39:19;;;;;;;;;;;;;;;10.74;53.46;98347.72;4975327;28;19918;-80
2023/04/06 01:41:46;;;;;;;;;;;;;;;10.72;53.21;98346.16;4975266;28;20017;-80
2023/04/06 01:44:12;;;;;;;;;;;;;;;10.66;53.30;98350.94;4976649;28;19925;-80
2023/04/06 01:46:37;;;;;;;;;;;;;;;10.63;53.21;98359.03;4976649;28;19926;-80
2023/04/06 01:49:02;;;;;;;;;;;;;;;10.62;53.23;98357.38;4976867;28;19918;-80
2023/04/06 01:51:28;;;;;;;;;;;;;;;10.62;53.54;98351.31;4976530;28;19925;-81
2023/04/06 01:53:53;;;;;;;;;;;;;;;10.60;53.61;98354.06;4975228;28;19918;-80
2023/04/06 01:56:19;;;;;;;;;;;;;;;10.60;53.62;98354.06;4975224;28;19918;-80
2023/04/06 01:58:45;;;;;;;;;;;;;;;10.62;53.34;98348.72;4975241;28;19940;-80
2023/04/06 02:01:10;;;;;;;;;;;;;;;10.64;53.62;98350.25;4976096;28;20370;-80
2023/04/06 02:03:35;;;;;;;;;;;;;;;10.64;53.54;98349.41;4976408;28;20394;-80
2023/04/06 02:06:01;;;;;;;;;;;;;;;10.65;53.54;98349.28;4976560;28;19965;-80
2023/04/06 02:08:26;;;;;;;;;;;;;;;10.66;53.46;98348.34;4975100;28;19918;-80
2023/04/06 02:10:52;;;;;;;;;;;;;;;10.64;53.60;98345.03;4974958;28;19918;-80
2023/04/06 02:13:17;;;;;;;;;;;;;;;10.66;53.55;98343.13;4974966;28;20441;-79
2023/04/06 02:15:42;;;;;;;;;;;;;;;10.66;53.36;98342.31;4975710;28;19922;-79
2023/04/06 02:18:09;;;;;;;;;;;;;;;10.67;53.35;98336.97;4976259;28;20012;-79
2023/04/06 02:20:34;;;;;;;;;;;;;;;10.70;53.34;98341.06;4974878;28;20420;-78
2023/04/06 02:23:00;;;;;;;;;;;;;;;10.69;53.29;98342.03;4975836;28;19922;-79
2023/04/06 02:25:26;;;;;;;;;;;;;;;10.70;53.17;98343.69;4974241;28;19969;-80
2023/04/06 02:27:51;;;;;;;;;;;;;;;10.70;53.44;98350.69;4958566;28;19921;-79
2023/04/06 02:30:17;;;;;;;;;;;;;;;10.70;53.27;98351.50;4958110;28;19922;-79
2023/04/06 02:32:42;;;;;;;;;;;;;;;10.71;53.04;98349.75;4957720;28;20021;-78
2023/04/06 02:35:10;;;;;;;;;;;;;;;10.71;53.15;98340.13;4975413;28;19944;-78
2023/04/06 02:37:35;;;;;;;;;;;;;;;10.72;53.09;98347.03;4975718;28;19922;-80
2023/04/06 02:40:01;;;;;;;;;;;;;;;10.72;53.35;98346.16;4958454;28;20305;-80
2023/04/06 02:42:26;;;;;;;;;;;;;;;10.71;53.19;98344.53;4975372;28;20325;-80
2023/04/06 02:44:51;;;;;;;;;;;;;;;10.69;52.95;98349.88;4957953;28;19929;-82
2023/04/06 02:47:17;;;;;;;;;;;;;;;10.66;52.86;98353.56;4958476;28;19929;-81
2023/04/06 02:49:42;;;;;;;;;;;;;;;10.65;53.10;98351.91;4975450;28;19918;-81
2023/04/06 02:52:07;;;;;;;;;;;;;;;10.60;52.94;98346.22;4957999;28;19918;-82
2023/04/06 02:54:33;;;;;;;;;;;;;;;10.58;53.03;98348.16;4973909;28;19925;-81
2023/04/06 02:56:58;;;;;;;;;;;;;;;10.56;53.06;98349.22;4957993;28;19918;-81
2023/04/06 02:59:23;;;;;;;;;;;;;;;10.52;52.88;98351.25;4975422;28;19977;-82
2023/04/06 03:01:49;;;;;;;;;;;;;;;10.49;52.94;98362.78;4973569;28;19918;-81
2023/04/06 03:04:14;;;;;;;;;;;;;;;10.44;52.82;98367.53;4975408;28;19919;-81
2023/04/06 03:06:40;;;;;;;;;;;;;;;10.40;52.96;98360.91;4975171;28;20005;-81
2023/04/06 03:09:05;;;;;;;;;;;;;;;10.37;53.07;98361.16;4958039;28;19919;-81
2023/04/06 03:11:30;;;;;;;;;;;;;;;10.34;52.91;98361.41;4957676;28;19918;-79
2023/04/06 03:13:56;;;;;;;;;;;;;;;10.30;52.89;98359.97;4957652;28;19922;-80
2023/04/06 03:16:21;;;;;;;;;;;;;;;10.29;52.84;98359.16;4958037;28;19986;-80
2023/04/06 03:18:47;;;;;;;;;;;;;;;10.25;52.80;98360.34;4958168;28;19929;-80
2023/04/06 03:21:12;;;;;;;;;;;;;;;10.23;52.81;98370.09;4957909;28;20400;-81
2023/04/06 03:23:38;;;;;;;;;;;;;;;10.23;52.86;98366.63;4957445;28;19922;-81
2023/04/06 03:26:03;;;;;;;;;;;;;;;10.21;52.93;98365.94;4956840;28;19919;-84
2023/04/06 03:28:29;;;;;;;;;;;;;;;10.19;52.81;98366.06;4974607;28;19918;-79
2023/04/06 03:30:54;;;;;;;;;;;;;;;10.18;52.83;98369.63;4975004;28;19918;-84
2023/04/06 03:33:20;;;;;;;;;;;;;;;10.19;52.91;98365.25;4957701;28;19929;-87
2023/04/06 03:35:46;;;;;;;;;;;;;;;10.18;52.91;98364.41;4974095;28;19977;-85
2023/04/06 03:38:11;;;;;;;;;;;;;;;10.37;64.13;98376.81;4973469;28;19929;-81
2023/04/06 03:40:36;;;;;;;;;;;;;;;10.49;66.05;98373.22;4957930;28;20009;-72
2023/04/06 03:43:02;;;;;;;;;;;;;;;11.21;71.35;98371.63;4972744;28;20386;-79
2023/04/06 03:45:27;;;;;;;;;;;;;;;11.52;71.25;98370.78;4957707;28;19925;-75
2023/04/06 03:47:53;;;;;;;;;;;;;;;11.81;70.36;98370.03;4956855;28;19925;-78
2023/04/06 03:50:18;;;;;;;;;;;;;;;11.78;64.92;98360.69;4957210;28;19926;-77
2023/04/06 03:52:44;;;;;;;;;;;;;;;11.62;61.08;98358.56;4974186;28;20381;-76
2023/04/06 03:55:09;;;;;;;;;;;;;;;11.44;60.16;98358.38;4974508;28;19988;-77
2023/04/06 03:57:34;;;;;;;;;;;;;;;11.21;59.99;98360.31;4972778;28;19925;-75
2023/04/06 04:00:00;;;;;;;;;;;;;;;11.07;59.70;98368.50;4972535;28;19918;-76
2023/04/06 04:02:25;;;;;;;;;;;;;;;10.93;59.26;98372.28;4974463;28;20414;-91
2023/04/06 04:04:50;;;;;;;;;;;;;;;10.82;59.19;98366.16;4959223;28;19925;-91
2023/04/06 04:07:16;;;;;;;;;;;;;;;10.74;59.34;98375.59;4980946;28;19922;-94
2023/04/06 04:09:41;;;;;;;;;;;;;;;10.67;58.94;98372.66;4977658;28;19918;-91
2023/04/06 04:12:08;;;;;;;;;;;;;;;10.60;59.07;98369.72;4959631;28;19973;-91
2023/04/06 04:14:33;;;;;;;;;;;;;;;10.55;58.74;98371.91;4961944;28;19929;-92
2023/04/06 04:16:58;;;;;;;;;;;;;;;10.50;58.54;98376.66;4977644;28;19997;-92
2023/04/06 04:19:23;;;;;;;;;;;;;;;10.47;58.36;98374.31;4995389;28;19909;-92
2023/04/06 04:21:49;;;;;;;;;;;;;;;10.43;58.00;98371.09;4987543;28;19921;-92
2023/04/06 04:24:14;;;;;;;;;;;;;;;10.43;58.12;98380.72;4980039;28;19918;-93
2023/04/06 04:26:40;;;;;;;;;;;;;;;10.41;57.74;98374.81;4978766;28;20040;-93
2023/04/06 04:29:05;;;;;;;;;;;;;;;10.40;57.65;98373.94;4978182;28;19925;-92
2023/04/06 04:31:30;;;;;;;;;;;;;;;10.39;57.35;98371.47;4977545;28;19950;-91
2023/04/06 04:33:56;;;;;;;;;;;;;;;10.41;57.23;98374.81;4975429;28;19925;-93
2023/04/06 04:36:21;;;;;;;;;;;;;;;10.39;57.14;98374.94;4979369;28;19930;-91
2023/04/06 04:38:46;;;;;;;;;;;;;;;10.41;56.77;98373.00;4979135;28;19924;-94
2023/04/06 04:41:12;;;;;;;;;;;;;;;10.45;56.58;98384.03;4970477;28;19918;-91
2023/04/06 04:43:37;;;;;;;;;;;;;;;10.48;56.53;98381.16;4979723;28;19926;-84
2023/04/06 04:46:04;;;;;;;;;;;;;;;10.51;56.08;98378.31;4972636;28;19925;-84
2023/04/06 04:48:29;;;;;;;;;;;;;;;10.56;55.80;98377.94;4974283;28;19918;-82
2023/04/06 04:50:55;;;;;;;;;;;;;;;10.64;55.46;98378.13;4976518;28;19924;-78
2023/04/06 04:53:20;;;;;;;;;;;;;;;10.72;55.22;98385.31;4977994;28;20008;-78
2023/04/06 04:55:47;;;;;;;;;;;;;;;10.83;59.62;98382.66;4976181;28;20366;-83
2023/04/06 04:58:16;;;;;;;;;;;;;;;11.21;60.87;98389.91;4984455;28;19926;-78
2023/04/06 05:00:42;;;;;;;;;;;;;;;11.40;59.17;98389.19;4976774;28;19918;-80
2023/04/06 05:03:07;;;;;;;;;;;;;;;11.51;57.67;98390.88;4976401;28;20391;-79
2023/04/06 05:05:32;;;;;;;;;;;;;;;11.64;57.04;98384.56;4970674;28;20435;-80
2023/04/06 05:07:58;;;;;;;;;;;;;;;11.81;55.79;98385.72;4981995;28;20398;-79
2023/04/06 05:10:23;;;;;;;;;;;;;;;11.97;54.94;98387.88;4969150;28;20328;-78
2023/04/06 05:12:48;;;;;;;;;;;;;;;12.60;53.42;98387.50;4961669;28;20301;-78
2023/04/06 05:15:14;;;;;;;;;;;;;;;13.19;50.88;98380.41;4971891;28;20405;-79
2023/04/06 05:17:39;;;;;;;;;;;;;;;14.94;46.31;98380.31;4965540;28;19922;-79
2023/04/06 05:20:06;;;;;;;;;;;;;;;14.59;45.89;98381.97;4956018;28;19921;-80
2023/04/06 05:22:31;;;;;;;;;;;;;;;14.64;46.28;98385.00;4972619;28;20308;-79
2023/04/06 05:24:56;;;;;;;;;;;;;;;15.75;43.22;98384.38;4957934;28;20013;-78
2023/04/06 05:27:22;;;;;;;;;;;;;;;17.59;39.37;98375.38;4962597;28;19990;-81
2023/04/06 05:29:47;;;;;;;;;;;;;;;19.08;36.13;98373.44;4977090;28;19921;-79
2023/04/06 05:32:12;;;;;;;;;;;;;;;19.77;34.13;98365.25;4992006;28;19918;-79
2023/04/06 05:34:38;;;;;;;;;;;;;;;18.99;35.25;98377.97;4977560;28;19961;-79
2023/04/06 05:37:03;;;;;;;;;;;;;;;19.49;34.45;98367.72;4991758;28;20386;-79
2023/04/06 05:39:28;;;;;;;;;;;;;;;20.46;31.58;98363.94;4989872;28;19965;-79
2023/04/06 05:41:54;;;;;;;;;;;;;;;20.04;31.80;98361.06;4967011;28;20305;-80
2023/04/06 05:44:19;;;;;;;;;;;;;;;20.46;31.01;98360.47;4958430;28;20290;-79
2023/04/06 05:46:44;;;;;;;;;;;;;;;21.73;29.00;98351.56;4972640;28;20313;-80
2023/04/06 05:49:10;;;;;;;;;;;;;;;22.54;27.66;98352.63;4961020;28;19978;-79
2023/04/06 05:51:35;;;;;;;;;;;;;;;22.41;27.38;98350.75;4979718;28;19918;-79
2023/04/06 05:54:00;;;;;;;;;;;;;;;22.22;27.78;98347.84;4957485;28;19968;-79
2023/04/06 05:56:26;;;;;;;;;;;;;;;23.27;26.64;98344.59;4972124;28;19966;-79
2023/04/06 05:58:51;;;;;;;;;;;;;;;23.28;26.59;98346.22;4956683;28;19926;-79
2023/04/06 06:01:16;;;;;;;;;;;;;;;24.14;26.97;98340.78;4971974;28;19918;-80
2023/04/06 06:03:42;;;;;;;;;;;;;;;24.72;26.35;98335.25;4972445;28;19922;-78
2023/04/06 06:06:07;;;;;;;;;;;;;;;25.20;23.87;98336.44;4971901;28;19925;-79
2023/04/06 06:08:33;;;;;;;;;;;;;;;25.54;24.76;98328.91;4957336;28;19922;-81
2023/04/06 06:10:58;;;;;;;;;;;;;;;25.91;25.27;98338.72;4986563;28;20341;-78
2023/04/06 06:13:24;;;;;;;;;;;;;;;26.42;27.68;98342.75;4978530;28;20448;-76
2023/04/06 06:15:50;;;;;;;;;;;;;;;26.92;28.17;98338.06;4974600;28;19926;-78
2023/04/06 06:18:15;;;;;;;;;;;;;;;27.50;27.36;98339.91;4957263;28;19924;-77
2023/04/06 06:20:40;;;;;;;;;;;;;;;27.39;27.40;98336.19;4956958;28;19918;-79
2023/04/06 06:23:06;;;;;;;;;;;;;;;27.33;26.77;98341.69;4956741;28;19918;-77
2023/04/06 06:25:31;;;;;;;;;;;;;;;27.67;25.57;98337.25;4955652;28;19925;-78
2023/04/06 06:27:57;;;;;;;;;;;;;;;27.62;25.35;98334.50;4956873;28;19918;-77
2023/04/06 06:30:22;;;;;;;;;;;;;;;28.20;24.40;98329.16;4974461;28;19918;-77
2023/04/06 06:32:48;;;;;;;;;;;;;;;28.17;23.81;98335.81;4956424;28;19922;-73
2023/04/06 06:35:13;;;;;;;;;;;;;;;27.44;24.80;98346.19;4974060;28;19918;-76
2023/04/06 06:37:38;;;;;;;;;;;;;;;26.66;25.16;98342.81;4973611;28;19933;-75
2023/04/06 06:40:04;;;;;;;;;;;;;;;25.99;25.97;98339.25;4972145;28;20014;-75
2023/04/06 06:42:30;;;;;;;;;;;;;;;25.31;26.46;98337.59;4971887;28;19965;-75
2023/04/06 06:44:55;;;;;;;;;;;;;;;24.63;27.93;98341.88;4972451;28;20009;-72
2023/04/06 06:47:21;;;;;;;;;;;;;;;24.15;28.57;98345.91;4973520;28;19956;-73
2023/04/06 06:49:46;;;;;;;;;;;;;;;23.62;29.48;98348.78;4972113;28;19918;-72
2023/04/06 06:52:11;;;;;;;;;;;;;;;23.35;28.56;98345.41;4972134;28;19918;-74
2023/04/06 06:54:37;;;;;;;;;;;;;;;23.24;28.02;98350.31;4973481;28;19925;-73
2023/04/06 06:57:02;;;;;;;;;;;;;;;23.04;33.16;98344.19;4971580;28;19922;-76
2023/04/06 06:59:27;;;;;;;;;;;;;;;22.70;34.08;98351.38;4972345;28;19925;-76
2023/04/06 07:01:53;;;;;;;;;;;;;;;22.40;34.98;98359.75;4973331;28;19922;-79
2023/04/06 07:04:18;;;;;;;;;;;;;;;22.07;35.54;98355.16;4956327;28;19918;-79
2023/04/06 07:06:45;;;;;;;;;;;;;;;21.84;36.12;98353.66;4956377;28;19925;-77
2023/04/06 07:09:10;;;;;;;;;;;;;;;21.74;35.99;98355.03;4973919;28;19929;-77
2023/04/06 07:11:35;;;;;;;;;;;;;;;21.70;36.25;98357.28;4953926;28;19937;-77
2023/04/06 07:14:01;;;;;;;;;;;;;;;22.36;35.52;98354.03;4955439;28;19924;-79
2023/04/06 07:16:26;;;;;;;;;;;;;;;22.56;35.11;98354.03;4939448;28;20325;-79
2023/04/06 07:18:52;;;;;;;;;;;;;;;22.64;34.79;98357.53;4955842;28;20332;-78
2023/04/06 07:21:17;;;;;;;;;;;;;;;23.37;34.28;98357.47;4972111;28;19918;-77
2023/04/06 07:23:43;;;;;;;;;;;;;;;23.88;33.42;98357.72;4972592;28;19925;-76
2023/04/06 07:26:08;;;;;;;;;;;;;;;24.02;32.56;98348.63;4973137;28;19925;-76
2023/04/06 07:28:34;;;;;;;;;;;;;;;23.59;33.40;98350.00;4972803;28;19918;-77
2023/04/06 07:31:00;;;;;;;;;;;;;;;23.55;33.09;98346.16;4955813;28;19922;-75
2023/04/06 07:33:29;;;;;;;;;;;;;;;23.83;33.67;98348.53;4969443;28;19929;-76
2023/04/06 07:35:55;;;;;;;;;;;;;;;23.48;34.36;98348.84;4968800;28;19926;-76
2023/04/06 07:38:20;;;;;;;;;;;;;;;23.10;35.31;98351.38;4972889;28;19945;-76
2023/04/06 07:40:46;;;;;;;;;;;;;;;23.45;34.82;98353.75;4955463;28;20499;-73
2023/04/06 07:43:11;;;;;;;;;;;;;;;23.64;33.98;98347.56;4972861;28;19957;-73
2023/04/06 07:45:36;;;;;;;;;;;;;;;23.37;33.80;98346.84;4946830;28;20441;-75
2023/04/06 07:48:02;;;;;;;;;;;;;;;23.25;33.80;98346.66;4941371;28;20313;-79
2023/04/06 07:50:27;;;;;;;;;;;;;;;23.64;32.52;98341.38;4972517;28;19922;-78
2023/04/06 07:52:52;;;;;;;;;;;;;;;25.05;30.01;98355.50;4972696;28;20313;-78
2023/04/06 07:55:18;;;;;;;;;;;;;;;25.71;28.64;98342.44;4972956;28;20357;-81
2023/04/06 07:57:43;;;;;;;;;;;;;;;25.92;27.01;98341.19;4973263;28;20386;-81
2023/04/06 08:00:09;;;;;;;;;;;;;;;25.21;27.13;98339.94;4955631;28;20348;-77
2023/04/06 08:02:34;;;;;;;;;;;;;;;24.77;27.94;98339.94;4970912;28;20516;-76
2023/04/06 08:05:00;;;;;;;;;;;;;;;24.44;28.89;98346.31;4971190;28;20016;-76
2023/04/06 08:07:25;;;;;;;;;;;;;;;23.97;30.74;98343.97;4971071;28;20294;-76
2023/04/06 08:09:51;;;;;;;;;;;;;;;23.65;33.37;98341.19;4971624;28;20302;-73
2023/04/06 08:12:16;;;;;;;;;;;;;;;23.57;33.71;98341.41;4973207;28;19918;-78
2023/04/06 08:14:42;;;;;;;;;;;;;;;23.32;34.12;98341.28;4959492;28;20005;-76
2023/04/06 08:17:07;;;;;;;;;;;;;;;23.05;34.90;98348.50;4967973;28;19997;-78
2023/04/06 08:19:32;;;;;;;;;;;;;;;22.71;35.78;98345.06;4955275;28;19922;-78
2023/04/06 08:21:58;;;;;;;;;;;;;;;22.48;35.74;98342.78;4954679;29;19918;-74
2023/04/06 08:24:23;;;;;;;;;;;;;;;22.39;34.38;98339.50;4955291;29;20013;-79
2023/04/06 08:26:48;;;;;;;;;;;;;;;22.15;33.50;98343.53;4956370;29;19961;-80
2023/04/06 08:29:14;;;;;;;;;;;;;;;21.95;35.16;98336.31;4970411;28;19919;-79
2023/04/06 08:31:39;;;;;;;;;;;;;;;21.82;35.14;98337.09;4955712;28;20037;-77
2023/04/06 08:34:05;;;;;;;;;;;;;;;21.77;34.11;98330.75;4969787;28;19919;-77
2023/04/06 08:36:30;;;;;;;;;;;;;;;21.58;33.32;98329.66;4969625;28;19985;-77
2023/04/06 08:38:56;;;;;;;;;;;;;;;21.38;33.14;98333.00;4954522;29;20353;-73
2023/04/06 08:41:21;;;;;;;;;;;;;;;21.10;33.17;98327.75;4969460;28;19942;-77
2023/04/06 08:43:47;;;;;;;;;;;;;;;20.86;33.01;98326.34;4968706;28;19919;-73
2023/04/06 08:46:13;;;;;;;;;;;;;;;20.54;33.31;98325.88;4953209;29;19973;-76
2023/04/06 08:48:38;;;;;;;;;;;;;;;20.31;32.99;98326.09;4969534;28;19926;-76
2023/04/06 08:51:04;;;;;;;;;;;;;;;20.12;33.17;98325.69;4953253;29;19919;-73
2023/04/06 08:53:29;;;;;;;;;;;;;;;19.96;33.46;98329.41;4953119;29;19919;-74
2023/04/06 08:55:55;;;;;;;;;;;;;;;19.81;33.48;98320.66;4953199;29;19919;-73
2023/04/06 08:58:22;;;;;;;;;;;;;;;19.70;33.41;98324.59;4969546;28;19922;-73
2023/04/06 09:00:47;;;;;;;;;;;;;;;19.60;33.48;98318.78;4953000;29;20070;-78
2023/04/06 09:03:13;;;;;;;;;;;;;;;19.49;33.71;98314.78;4968817;28;20374;-77
2023/04/06 09:05:38;;;;;;;;;;;;;;;19.44;33.74;98306.56;4954428;28;19929;-74
2023/04/06 09:08:03;;;;;;;;;;;;;;;20.00;32.99;98309.50;4954176;29;19925;-72
2023/04/06 09:10:29;;;;;;;;;;;;;;;20.70;32.31;98307.06;4953990;28;19954;-75
2023/04/06 09:13:02;;;;;;;;;;;;;;;21.51;31.46;98305.72;4954366;29;19926;-74
2023/04/06 09:15:27;;;;;;;;;;;;;;;22.29;30.31;98302.63;4968869;28;19923;-74
2023/04/06 09:17:54;;;;;;;;;;;;;;;22.78;29.47;98303.28;4952819;29;19925;-73
2023/04/06 09:20:27;;;;;;;;;;;;;;;22.81;28.78;98300.22;4954133;28;19970;-74
2023/04/06 09:22:52;;;;;;;;;;;;;;;22.78;27.93;98297.97;4969286;28;20468;-74
2023/04/06 09:25:19;;;;;;;;;;;;;;;22.61;27.90;98300.22;4969110;28;19918;-76
2023/04/06 09:27:44;;;;;;;;;;;;;;;22.49;27.67;98297.38;4968974;28;20374;-75
2023/04/06 09:30:13;;;;;;;;;;;;;;;22.23;27.86;98300.78;4954244;28;19930;-77
2023/04/06 09:32:48;;;;;;;;;;;;;;;21.97;27.67;98298.94;4952857;29;19981;-75
2023/04/06 09:35:15;;;;;;;;;;;;;;;21.66;28.47;98300.25;4971772;28;19919;-75
2023/04/06 09:37:40;;;;;;;;;;;;;;;21.44;28.74;98294.22;4972290;28;19937;-77
2023/04/06 09:40:06;;;;;;;;;;;;;;;21.23;29.18;98289.84;4957542;29;19919;-75
2023/04/06 09:42:32;;;;;;;;;;;;;;;21.04;29.04;98286.88;4972704;28;19978;-75
2023/04/06 09:44:57;;;;;;;;;;;;;;;20.80;29.52;98296.13;4956082;28;19922;-73
2023/04/06 09:47:23;;;;;;;;;;;;;;;20.66;29.81;98292.53;4957284;29;19923;-74
2023/04/06 09:49:48;;;;;;;;;;;;;;;20.61;29.94;98282.47;4972174;28;19989;-73
2023/04/06 09:52:14;;;;;;;;;;;;;;;20.88;29.84;98297.81;4971998;28;20001;-77
2023/04/06 09:54:39;;;;;;;;;;;;;;;21.55;29.53;98285.72;4972236;28;19918;-76
2023/04/06 09:57:18;;;;;;;;;;;;;;;21.39;29.17;98284.19;4971963;28;19940;-75
2023/04/06 09:59:46;;;;;;;;;;;;;;;21.37;28.79;98280.09;4971609;28;19957;-74
2023/04/06 10:02:15;;;;;;;;;;;;;;;21.21;28.56;98287.38;4971883;28;19919;-74
2023/04/06 10:04:50;;;;;;;;;;;;;;;21.20;28.58;98277.78;4971810;28;20021;-75
2023/04/06 10:07:15;;;;;;;;;;;;;;;21.25;28.31;98275.38;4972038;28;19918;-77
2023/04/06 10:09:40;;;;;;;;;;;;;;;21.11;28.27;98281.59;4956813;28;19919;-74
2023/04/06 10:12:06;;;;;;;;;;;;;;;21.03;28.72;98277.28;4971672;28;19918;-78
2023/04/06 10:14:32;;;;;;;;;;;;;;;21.03;28.58;98265.84;4955510;29;19927;-74
2023/04/06 10:16:58;;;;;;;;;;;;;;;21.32;28.58;98272.75;4956511;29;19978;-75
2023/04/06 10:19:24;;;;;;;;;;;;;;;21.35;28.57;98264.38;4955249;29;20370;-74
2023/04/06 10:21:50;;;;;;;;;;;;;;;21.41;28.50;98273.38;4955491;29;19918;-75
2023/04/06 10:24:17;;;;;;;;;;;;;;;21.31;28.57;98276.41;4971183;28;19919;-75
2023/04/06 10:26:42;;;;;;;;;;;;;;;21.29;28.31;98273.13;4956725;28;19925;-74
2023/04/06 10:29:07;;;;;;;;;;;;;;;21.11;28.77;98271.81;4954920;29;19919;-74
2023/04/06 10:31:33;;;;;;;;;;;;;;;21.08;28.73;98268.72;4956257;28;19918;-74
2023/04/06 10:33:59;;;;;;;;;;;;;;;21.00;28.04;98267.06;4971664;28;20005;-73
2023/04/06 10:36:26;;;;;;;;;;;;;;;21.07;27.92;98261.78;4956404;28;19976;-74
2023/04/06 10:38:55;;;;;;;;;;;;;;;21.02;28.28;98261.56;4956771;28;19918;-74
2023/04/06 10:41:20;;;;;;;;;;;;;;;20.90;28.39;98256.78;4971122;28;19922;-73
2023/04/06 10:43:45;;;;;;;;;;;;;;;20.83;28.65;98257.78;4971073;28;19919;-72
2023/04/06 10:46:11;;;;;;;;;;;;;;;20.81;28.60;98257.16;4970377;28;19925;-73
2023/04/06 10:48:40;;;;;;;;;;;;;;;20.72;28.97;98259.94;4971180;28;20406;-73
2023/04/06 10:51:12;;;;;;;;;;;;;;;20.71;28.90;98263.59;4971121;28;20387;-72
2023/04/06 10:53:38;;;;;;;;;;;;;;;20.64;28.58;98257.44;4954734;29;19925;-73
2023/04/06 10:56:03;;;;;;;;;;;;;;;20.48;28.77;98252.41;4954599;29;19918;-74
2023/04/06 10:58:30;;;;;;;;;;;;;;;20.39;29.12;98252.53;4970896;28;19925;-73
2023/04/06 11:00:55;;;;;;;;;;;;;;;20.36;29.26;98247.63;4970760;28;20366;-73
2023/04/06 11:03:21;;;;;;;;;;;;;;;20.31;29.35;98247.38;4970386;28;19925;-77
2023/04/06 11:05:50;;;;;;;;;;;;;;;20.38;29.42;98234.19;4970963;28;19926;-74
2023/04/06 11:08:42;;;;;;;;;;;;;;;20.74;28.93;98235.88;4970740;28;19919;-73
2023/04/06 11:11:09;;;;;;;;;;;;;;;20.60;28.85;98229.66;4954919;28;20361;-73
2023/04/06 11:13:40;;;;;;;;;;;;;;;20.70;28.81;98230.16;4955945;28;19918;-74
2023/04/06 11:16:06;;;;;;;;;;;;;;;20.67;28.96;98233.19;4970489;28;19923;-73
2023/04/06 11:18:31;;;;;;;;;;;;;;;20.61;28.70;98231.28;4955980;29;19926;-73
2023/04/06 11:20:57;;;;;;;;;;;;;;;20.62;29.01;98227.63;4954200;29;19922;-73
2023/04/06 11:23:23;;;;;;;;;;;;;;;20.62;28.86;98219.69;4970331;28;19926;-72
2023/04/06 11:25:52;;;;;;;;;;;;;;;20.86;28.36;98221.06;4970798;28;20036;-74
2023/04/06 11:28:18;;;;;;;;;;;;;;;20.70;28.97;98219.56;4970522;28;19918;-73
2023/04/06 11:30:43;;;;;;;;;;;;;;;20.56;28.95;98217.81;4954571;29;20442;-73
2023/04/06 11:33:08;;;;;;;;;;;;;;;20.46;29.25;98226.06;4970249;28;20303;-75
2023/04/06 11:35:34;;;;;;;;;;;;;;;20.40;28.53;98219.72;4970036;28;19929;-74
2023/04/06 11:38:00;;;;;;;;;;;;;;;20.36;28.97;98223.75;4955308;28;19923;-73
2023/04/06 11:40:27;;;;;;;;;;;;;;;20.29;29.05;98208.81;4970629;28;19920;-71
2023/04/06 11:42:53;;;;;;;;;;;;;;;20.19;29.18;98209.16;4970092;28;19958;-73
2023/04/06 11:45:19;;;;;;;;;;;;;;;20.25;29.14;98216.34;4970310;28;19961;-74
2023/04/06 11:47:44;;;;;;;;;;;;;;;20.17;29.42;98211.19;4955160;28;20013;-73
2023/04/06 11:50:10;;;;;;;;;;;;;;;20.08;29.57;98213.13;4969671;28;19922;-72
2023/04/06 11:52:36;;;;;;;;;;;;;;;19.95;29.98;98205.91;4953725;29;20033;-73
2023/04/06 11:55:19;;;;;;;;;;;;;;;19.89;30.22;98206.66;4955517;28;19919;-75
2023/04/06 11:57:45;;;;;;;;;;;;;;;19.82;30.34;98206.59;4969935;28;19926;-72
2023/04/06 12:00:10;;;;;;;;;;;;;;;19.80;30.45;98210.47;4969960;28;19922;-74
2023/04/06 12:02:36;;;;;;;;;;;;;;;19.87;29.96;98204.19;4953914;29;19942;-73
2023/04/06 12:05:02;;;;;;;;;;;;;;;19.86;29.98;98210.53;4953576;29;20412;-73
2023/04/06 12:07:28;;;;;;;;;;;;;;;19.74;30.35;98208.53;4969568;28;19918;-74
2023/04/06 12:09:54;;;;;;;;;;;;;;;19.69;30.36;98212.56;4954027;29;19925;-74
2023/04/06 12:12:19;;;;;;;;;;;;;;;19.63;30.65;98207.22;4970078;28;19919;-74
2023/04/06 12:14:44;;;;;;;;;;;;;;;19.58;30.68;98210.41;4954753;28;19923;-73
2023/04/06 12:17:10;;;;;;;;;;;;;;;19.54;30.78;98209.16;4937683;29;20021;-74
2023/04/06 12:19:35;;;;;;;;;;;;;;;19.52;30.77;98206.69;4937552;29;19918;-76
2023/04/06 12:22:00;;;;;;;;;;;;;;;19.45;30.73;98202.31;4955078;29;19922;-74
2023/04/06 12:24:27;;;;;;;;;;;;;;;19.38;30.97;98202.25;4954523;29;20034;-74
2023/04/06 12:26:52;;;;;;;;;;;;;;;19.34;31.07;98198.34;4937635;29;19925;-72
2023/04/06 12:29:18;;;;;;;;;;;;;;;19.19;31.25;98198.38;4954329;29;20337;-73
2023/04/06 12:31:44;;;;;;;;;;;;;;;19.02;31.65;98195.09;4937291;29;20296;-74
2023/04/06 12:34:10;;;;;;;;;;;;;;;18.92;31.73;98190.09;4937667;29;20428;-73
2023/04/06 12:36:36;;;;;;;;;;;;;;;18.82;31.86;98202.78;4954731;29;19966;-73
2023/04/06 12:39:02;;;;;;;;;;;;;;;18.73;31.81;98198.56;4937366;29;19942;-73
2023/04/06 12:41:27;;;;;;;;;;;;;;;18.60;31.80;98199.22;4937298;29;20013;-72